createdAt,value
2023-02-02T00:00:22.444Z,4.70
2023-02-02T00:02:51.140Z,3.70
2023-02-02T00:05:19.442Z,5.23
2023-02-02T00:07:49.373Z,5.53
2023-02-02T00:10:18.631Z,4.63
2023-02-02T00:12:46.858Z,4.67
2023-02-02T00:15:15.107Z,5.20
2023-02-02T00:17:43.331Z,5.50
2023-02-02T00:20:12.566Z,5.20
2023-02-02T00:22:40.870Z,6.53
2023-02-02T00:25:11.400Z,6.23
2023-02-02T00:27:39.745Z,5.53
2023-02-02T00:30:10.430Z,5.10
2023-02-02T00:32:40.633Z,5.43
2023-02-02T00:35:10.446Z,6.90
2023-02-02T00:37:38.756Z,5.53
2023-02-02T00:40:10.769Z,5.47
2023-02-02T00:42:39.178Z,4.83
2023-02-02T00:45:16.815Z,6.00
2023-02-02T00:47:47.267Z,6.17
2023-02-02T00:50:19.302Z,6.17
2023-02-02T00:52:48.291Z,5.13
2023-02-02T00:55:20.459Z,5.47
2023-02-02T00:57:48.978Z,4.27
2023-02-02T01:00:53.525Z,5.43
2023-02-02T01:03:21.697Z,5.00
2023-02-02T01:05:51.913Z,4.27
2023-02-02T01:08:20.251Z,4.53
2023-02-02T01:10:49.848Z,3.70
2023-02-02T01:13:18.010Z,4.33
2023-02-02T01:15:46.214Z,4.60
2023-02-02T01:18:14.466Z,4.50
2023-02-02T01:20:42.728Z,3.97
2023-02-02T01:23:10.985Z,4.10
2023-02-02T01:25:39.255Z,4.70
2023-02-02T01:28:08.845Z,4.40
2023-02-02T01:30:37.155Z,2.70
2023-02-02T01:33:05.419Z,5.17
2023-02-02T01:35:33.715Z,4.63
2023-02-02T01:38:02.001Z,5.13
2023-02-02T01:40:30.316Z,4.83
2023-02-02T01:42:58.526Z,5.37
2023-02-02T01:45:30.460Z,5.10
2023-02-02T01:48:01.491Z,5.40
2023-02-02T01:50:34.004Z,4.67
2023-02-02T01:53:07.302Z,4.60
2023-02-02T01:55:39.876Z,3.87
2023-02-02T01:58:12.424Z,4.27
2023-02-02T02:00:46.935Z,2.63
2023-02-02T02:03:20.756Z,3.90
2023-02-02T02:05:53.543Z,3.20
2023-02-02T02:08:25.393Z,4.40
2023-02-02T02:10:55.061Z,4.90
2023-02-02T02:13:47.623Z,4.10
2023-02-02T02:16:28.732Z,4.00
2023-02-02T02:19:12.996Z,3.87
2023-02-02T02:22:16.295Z,4.13
2023-02-02T02:25:51.838Z,5.10
2023-02-02T02:28:58.327Z,4.57
2023-02-02T02:32:12.103Z,4.23
2023-02-02T02:34:54.882Z,4.83
2023-02-02T02:37:39.028Z,4.67
2023-02-02T02:40:23.122Z,5.17
2023-02-02T02:42:56.778Z,4.43
2023-02-02T02:45:29.019Z,6.27
2023-02-02T02:47:59.955Z,5.33
2023-02-02T02:50:29.117Z,4.40
2023-02-02T02:53:05.988Z,4.70
2023-02-02T02:55:47.579Z,5.10
2023-02-02T02:58:25.716Z,4.20
2023-02-02T03:01:07.872Z,4.07
2023-02-02T03:03:57.818Z,4.10
2023-02-02T03:06:39.107Z,4.93
2023-02-02T03:09:13.421Z,3.57
2023-02-02T03:11:42.317Z,4.87
2023-02-02T03:14:10.817Z,3.77
2023-02-02T03:16:39.202Z,4.30
2023-02-02T03:19:09.436Z,3.87
2023-02-02T03:21:37.691Z,3.43
2023-02-02T03:24:06.745Z,3.20
2023-02-02T03:26:36.049Z,3.93
2023-02-02T03:29:04.869Z,3.70
2023-02-02T03:31:33.210Z,3.90
2023-02-02T03:34:01.433Z,3.80
2023-02-02T03:36:31.043Z,3.27
2023-02-02T03:38:59.246Z,3.47
2023-02-02T03:41:27.554Z,4.10
2023-02-02T03:43:56.020Z,4.10
2023-02-02T03:46:24.288Z,3.27
2023-02-02T03:48:52.521Z,5.00
2023-02-02T03:51:21.229Z,3.67
2023-02-02T03:53:50.979Z,3.70
2023-02-02T03:56:20.520Z,3.67
2023-02-02T03:58:49.460Z,3.10
2023-02-02T04:01:17.926Z,3.43
2023-02-02T04:03:46.948Z,3.17
2023-02-02T04:06:15.243Z,2.80
2023-02-02T04:08:43.606Z,3.13
2023-02-02T04:11:13.633Z,3.40
2023-02-02T04:13:43.400Z,3.13
2023-02-02T04:16:13.401Z,3.07
2023-02-02T04:18:42.110Z,4.10
2023-02-02T04:21:10.734Z,4.73
2023-02-02T04:23:39.151Z,3.77
2023-02-02T04:26:07.824Z,3.77
2023-02-02T04:28:37.650Z,3.90
2023-02-02T04:31:06.361Z,3.43
2023-02-02T04:33:36.508Z,4.73
2023-02-02T04:36:06.468Z,3.63
2023-02-02T04:38:35.235Z,4.30
2023-02-02T04:41:10.737Z,3.73
2023-02-02T04:43:40.379Z,3.93
2023-02-02T04:46:08.746Z,3.40
2023-02-02T04:48:37.193Z,4.03
2023-02-02T04:51:09.614Z,3.40
2023-02-02T04:53:38.254Z,3.63
2023-02-02T04:56:08.692Z,4.77
2023-02-02T04:58:37.542Z,3.03
2023-02-02T05:01:13.101Z,4.13
2023-02-02T05:03:41.834Z,3.83
2023-02-02T05:06:10.488Z,4.13
2023-02-02T05:08:39.750Z,3.60
2023-02-02T05:11:09.649Z,3.83
2023-02-02T05:13:38.303Z,3.50
2023-02-02T05:16:08.273Z,3.67
2023-02-02T05:18:37.945Z,4.23
2023-02-02T05:21:06.804Z,4.47
2023-02-02T05:23:35.193Z,5.07
2023-02-02T05:26:03.502Z,4.80
2023-02-02T05:28:32.186Z,4.80
2023-02-02T05:31:00.654Z,4.80
2023-02-02T05:33:29.042Z,4.23
2023-02-02T05:35:58.857Z,4.80
2023-02-02T05:38:27.252Z,4.50
2023-02-02T05:40:55.658Z,5.43
2023-02-02T05:43:27.050Z,5.73
2023-02-02T05:45:56.115Z,5.90
2023-02-02T05:48:24.784Z,4.87
2023-02-02T05:51:05.665Z,5.47
2023-02-02T05:53:34.589Z,4.43
2023-02-02T05:56:02.896Z,5.10
2023-02-02T05:58:31.149Z,4.87
2023-02-02T06:00:59.442Z,4.57
2023-02-02T06:03:27.752Z,4.43
2023-02-02T06:05:56.119Z,4.53
2023-02-02T06:08:25.735Z,5.47
2023-02-02T06:10:54.143Z,5.33
2023-02-02T06:13:22.693Z,5.77
2023-02-02T06:15:51.008Z,4.97
2023-02-02T06:18:19.315Z,5.13
2023-02-02T06:20:47.904Z,5.10
2023-02-02T06:23:16.134Z,6.87
2023-02-02T06:25:47.055Z,6.03
2023-02-02T06:28:15.256Z,5.83
2023-02-02T06:30:44.312Z,5.23
2023-02-02T06:33:13.100Z,5.87
2023-02-02T06:35:41.563Z,4.80
2023-02-02T06:38:10.831Z,4.80
2023-02-02T06:40:39.067Z,5.90
2023-02-02T06:43:08.981Z,4.07
2023-02-02T06:45:40.116Z,5.40
2023-02-02T06:48:10.877Z,5.53
2023-02-02T06:50:39.258Z,4.97
2023-02-02T06:53:07.999Z,5.27
2023-02-02T06:55:36.279Z,4.87
2023-02-02T06:58:04.571Z,6.20
2023-02-02T07:00:36.900Z,4.10
2023-02-02T07:03:05.569Z,3.93
2023-02-02T07:05:33.895Z,4.10
2023-02-02T07:08:02.179Z,3.43
2023-02-02T07:11:15.854Z,4.57
2023-02-02T07:13:18.892Z,4.07
2023-02-02T07:15:49.817Z,4.00
2023-02-02T07:18:18.135Z,3.90
2023-02-02T07:20:46.521Z,4.40
2023-02-02T07:23:14.745Z,4.27
2023-02-02T07:25:43.978Z,3.97
2023-02-02T07:28:12.509Z,4.60
2023-02-02T07:30:40.853Z,4.90
2023-02-02T07:33:10.711Z,5.30
2023-02-02T07:35:39.039Z,4.67
2023-02-02T07:38:07.216Z,4.13
2023-02-02T07:40:35.526Z,5.13
2023-02-02T07:43:04.869Z,4.53
2023-02-02T07:45:33.490Z,6.30
2023-02-02T07:48:02.342Z,5.13
2023-02-02T07:50:32.728Z,4.30
2023-02-02T07:53:01.585Z,6.67
2023-02-02T07:55:30.130Z,6.73
2023-02-02T07:57:59.013Z,5.17
2023-02-02T08:00:28.334Z,4.60
2023-02-02T08:02:56.981Z,5.90
2023-02-02T08:05:25.465Z,4.23
2023-02-02T08:07:55.342Z,4.40
2023-02-02T08:10:24.681Z,4.47
2023-02-02T08:12:53.029Z,4.20
2023-02-02T08:15:21.422Z,4.23
2023-02-02T08:17:50.106Z,4.03
2023-02-02T08:20:18.876Z,4.33
2023-02-02T08:22:47.277Z,3.63
2023-02-02T08:25:17.013Z,4.47
2023-02-02T08:27:45.244Z,4.07
2023-02-02T08:30:14.565Z,4.47
2023-02-02T08:32:42.946Z,6.50
2023-02-02T08:35:11.619Z,4.40
2023-02-02T08:37:40.064Z,3.73
2023-02-02T08:40:11.008Z,5.40
2023-02-02T08:42:40.751Z,3.93
2023-02-02T08:46:04.565Z,3.80
2023-02-02T08:48:10.780Z,4.70
2023-02-02T08:50:40.232Z,3.20
2023-02-02T08:53:08.506Z,3.70
2023-02-02T08:55:36.962Z,4.13
2023-02-02T08:58:06.533Z,4.13
2023-02-02T09:00:34.734Z,3.20
2023-02-02T09:03:03.145Z,3.10
2023-02-02T09:05:31.443Z,4.93
2023-02-02T09:07:59.694Z,4.17
2023-02-02T09:10:28.459Z,3.97
2023-02-02T09:12:56.747Z,5.07
2023-02-02T09:15:26.758Z,3.33
2023-02-02T09:17:55.138Z,3.83
2023-02-02T09:20:23.494Z,3.80
2023-02-02T09:22:51.859Z,3.13
2023-02-02T09:25:20.036Z,2.60
2023-02-02T09:27:48.316Z,3.17
2023-02-02T09:30:17.063Z,3.33
2023-02-02T09:32:49.949Z,3.50
2023-02-02T09:35:18.389Z,2.70
2023-02-02T09:37:46.936Z,3.40
2023-02-02T09:40:20.542Z,3.73
2023-02-02T09:43:04.072Z,3.70
2023-02-02T09:45:46.902Z,3.70
2023-02-02T09:48:31.022Z,4.10
2023-02-02T09:51:05.984Z,3.93
2023-02-02T09:53:55.154Z,3.43
2023-02-02T09:56:30.047Z,3.87
2023-02-02T09:59:18.861Z,3.40
2023-02-02T10:01:53.781Z,3.43
2023-02-02T10:04:32.668Z,4.20
2023-02-02T10:07:11.436Z,3.30
2023-02-02T10:09:48.212Z,3.33
2023-02-02T10:12:34.106Z,3.20
2023-02-02T10:15:17.791Z,3.33
2023-02-02T10:17:53.324Z,3.50
2023-02-02T10:20:41.409Z,3.13
2023-02-02T10:23:23.530Z,3.33
2023-02-02T10:26:01.561Z,3.50
2023-02-02T10:29:04.327Z,3.10
2023-02-02T10:31:45.064Z,2.50
2023-02-02T10:34:22.918Z,3.00
2023-02-02T10:37:17.753Z,3.17
2023-02-02T10:40:03.410Z,2.87
2023-02-02T10:43:06.363Z,2.90
2023-02-02T10:45:35.383Z,3.83
2023-02-02T10:48:06.306Z,2.30
2023-02-02T10:50:36.453Z,3.70
2023-02-02T10:53:15.579Z,2.70
2023-02-02T10:55:52.481Z,2.90
2023-02-02T10:58:29.680Z,2.90
2023-02-02T11:01:01.227Z,2.33
2023-02-02T11:03:32.587Z,3.20
2023-02-02T11:06:22.268Z,3.23
2023-02-02T11:08:56.742Z,2.80
2023-02-02T11:11:29.295Z,2.37
2023-02-02T11:14:02.597Z,3.00
2023-02-02T11:16:42.649Z,3.83
2023-02-02T11:19:29.569Z,3.40
2023-02-02T11:22:00.750Z,3.20
2023-02-02T11:24:36.478Z,2.37
2023-02-02T11:27:13.548Z,2.60
2023-02-02T11:29:47.458Z,3.07
2023-02-02T11:32:25.264Z,3.40
2023-02-02T11:35:25.229Z,3.47
2023-02-02T11:37:58.875Z,3.30
2023-02-02T11:40:36.674Z,3.20
2023-02-02T11:43:16.267Z,3.30
2023-02-02T11:45:50.202Z,3.10
2023-02-02T11:48:22.366Z,2.47
2023-02-02T11:50:53.673Z,3.70
2023-02-02T11:53:27.299Z,2.80
2023-02-02T11:56:00.539Z,3.73
2023-02-02T11:58:31.765Z,2.73
2023-02-02T12:01:03.763Z,2.73
2023-02-02T12:03:36.116Z,2.13
2023-02-02T12:06:21.740Z,3.13
2023-02-02T12:08:50.859Z,2.53
2023-02-02T12:11:40.629Z,2.07
2023-02-02T12:14:31.462Z,2.10
2023-02-02T12:17:17.921Z,2.07
2023-02-02T12:20:20.200Z,2.17
2023-02-02T12:23:07.691Z,2.47
2023-02-02T12:25:56.864Z,2.50
2023-02-02T12:28:54.438Z,2.10
2023-02-02T12:31:35.048Z,2.40
2023-02-02T12:34:18.564Z,2.17
2023-02-02T12:37:02.936Z,2.50
2023-02-02T12:39:48.887Z,2.67
2023-02-02T12:42:36.868Z,3.50
2023-02-02T12:45:33.719Z,3.50
2023-02-02T12:48:23.009Z,6.13
2023-02-02T12:51:09.347Z,3.10
2023-02-02T12:54:33.365Z,2.60
2023-02-02T12:57:03.515Z,2.57
2023-02-02T13:00:12.660Z,2.70
2023-02-02T13:03:02.478Z,2.63
2023-02-02T13:05:59.818Z,2.33
2023-02-02T13:08:34.437Z,2.50
2023-02-02T13:11:29.667Z,2.53
2023-02-02T13:14:03.645Z,2.30
2023-02-02T13:16:36.292Z,2.83
2023-02-02T13:19:11.235Z,3.23
2023-02-02T13:21:42.243Z,2.47
2023-02-02T13:24:22.320Z,2.60
2023-02-02T13:26:51.449Z,2.67
2023-02-02T13:29:34.246Z,2.80
2023-02-02T13:32:24.315Z,2.53
2023-02-02T13:35:02.084Z,2.63
2023-02-02T13:37:40.716Z,2.57
2023-02-02T13:40:27.744Z,2.53
2023-02-02T13:43:07.689Z,2.90
2023-02-02T13:45:52.774Z,1.87
2023-02-02T13:48:34.917Z,2.00
2023-02-02T13:51:33.248Z,1.60
2023-02-02T13:54:50.411Z,1.80
2023-02-02T14:00:47.187Z,1.53
2023-02-02T14:03:38.258Z,2.23
2023-02-02T14:06:13.519Z,1.80
2023-02-02T14:08:52.092Z,2.03
2023-02-02T14:11:27.106Z,1.77
2023-02-02T14:14:18.073Z,1.73
2023-02-02T14:16:55.740Z,1.80
2023-02-02T14:19:54.998Z,1.87
2023-02-02T14:22:47.824Z,2.00
2023-02-02T14:26:04.816Z,2.20
2023-02-02T14:28:51.889Z,2.23
2023-02-02T14:31:44.083Z,2.50
2023-02-02T14:34:43.342Z,1.87
2023-02-02T14:37:35.821Z,1.53
2023-02-02T14:40:30.860Z,2.03
2023-02-02T14:43:35.315Z,1.53
2023-02-02T14:46:37.256Z,1.90
2023-02-02T14:49:15.336Z,1.90
2023-02-02T14:51:58.199Z,2.00
2023-02-02T14:54:39.480Z,1.90
2023-02-02T14:57:28.209Z,2.10
2023-02-02T15:00:01.191Z,2.70
2023-02-02T15:02:35.827Z,2.20
2023-02-02T15:05:46.016Z,2.10
2023-02-02T15:08:26.731Z,2.43
2023-02-02T15:11:31.514Z,2.00
2023-02-02T15:14:16.302Z,1.80
2023-02-02T15:16:47.301Z,2.10
2023-02-02T15:19:28.227Z,2.63
2023-02-02T15:22:04.626Z,2.23
2023-02-02T15:24:37.072Z,2.30
2023-02-02T15:27:08.671Z,2.67
2023-02-02T15:29:43.778Z,2.47
2023-02-02T15:32:20.369Z,2.90
2023-02-02T15:34:53.741Z,2.10
2023-02-02T15:37:27.730Z,2.70
2023-02-02T15:40:03.051Z,2.43
2023-02-02T15:42:56.153Z,2.33
2023-02-02T15:45:48.012Z,2.40
2023-02-02T15:48:26.756Z,3.10
2023-02-02T15:50:56.164Z,2.60
2023-02-02T15:53:28.053Z,2.40
2023-02-02T15:55:58.726Z,2.30
2023-02-02T15:58:34.589Z,2.40
2023-02-02T16:01:15.296Z,2.37
2023-02-02T16:03:52.752Z,2.83
2023-02-02T16:06:22.386Z,3.77
2023-02-02T16:08:51.370Z,2.53
2023-02-02T16:11:23.306Z,2.83
2023-02-02T16:14:02.435Z,2.80
2023-02-02T16:16:35.090Z,4.07
2023-02-02T16:19:15.078Z,3.63
2023-02-02T16:21:50.212Z,3.50
2023-02-02T16:24:25.031Z,4.57
2023-02-02T16:26:56.717Z,3.40
2023-02-02T16:29:28.029Z,3.33
2023-02-02T16:31:58.670Z,3.10
2023-02-02T16:34:47.236Z,3.30
2023-02-02T16:37:20.195Z,2.80
2023-02-02T16:39:48.520Z,3.33
2023-02-02T16:42:27.479Z,3.10
2023-02-02T16:44:57.127Z,2.97
2023-02-02T16:47:39.742Z,3.13
2023-02-02T16:50:31.424Z,2.90
2023-02-02T16:53:04.464Z,2.40
2023-02-02T16:55:50.047Z,3.10
2023-02-02T16:58:23.687Z,3.20
2023-02-02T17:01:14.063Z,3.20
2023-02-02T17:03:53.312Z,3.20
2023-02-02T17:06:41.768Z,2.83
2023-02-02T17:09:28.985Z,3.00
2023-02-02T17:12:01.963Z,3.60
2023-02-02T17:14:37.540Z,3.83
2023-02-02T17:17:07.875Z,3.90
2023-02-02T17:19:37.431Z,4.20
2023-02-02T17:22:06.171Z,3.80
2023-02-02T17:24:35.062Z,4.20
2023-02-02T17:27:04.946Z,4.00
2023-02-02T17:29:35.189Z,4.10
2023-02-02T17:32:03.399Z,4.40
2023-02-02T17:34:31.790Z,4.30
2023-02-02T17:37:01.861Z,4.10
2023-02-02T17:39:30.433Z,4.10
2023-02-02T17:41:59.074Z,3.57
2023-02-02T17:44:27.401Z,3.57
2023-02-02T17:46:55.992Z,3.93
2023-02-02T17:49:24.483Z,4.37
2023-02-02T17:51:53.115Z,3.60
2023-02-02T17:54:22.793Z,4.63
2023-02-02T17:56:51.145Z,4.17
2023-02-02T17:59:19.338Z,3.70
2023-02-02T18:01:47.690Z,3.70
2023-02-02T18:04:16.866Z,3.70
2023-02-02T18:06:45.110Z,4.90
2023-02-02T18:09:13.425Z,3.77
2023-02-02T18:11:45.437Z,4.83
2023-02-02T18:14:13.739Z,4.27
2023-02-02T18:16:41.963Z,4.57
2023-02-02T18:19:10.309Z,5.03
2023-02-02T18:21:38.958Z,4.57
2023-02-02T18:24:07.548Z,4.10
2023-02-02T18:26:35.949Z,3.90
2023-02-02T18:29:05.604Z,4.33
2023-02-02T18:31:34.054Z,4.47
2023-02-02T18:34:02.431Z,4.10
2023-02-02T18:36:30.855Z,3.70
2023-02-02T18:38:59.683Z,4.30
2023-02-02T18:41:29.019Z,4.33
2023-02-02T18:43:57.501Z,3.90
2023-02-02T18:46:27.454Z,4.07
2023-02-02T18:48:56.736Z,3.93
2023-02-02T18:51:25.328Z,3.90
2023-02-02T18:54:00.174Z,3.67
2023-02-02T18:56:29.857Z,4.60
2023-02-02T18:58:59.722Z,3.73
2023-02-02T19:01:29.963Z,4.00
2023-02-02T19:03:58.456Z,2.90
2023-02-02T19:06:45.853Z,3.57
2023-02-02T19:09:17.054Z,3.73
2023-02-02T19:11:47.550Z,4.43
2023-02-02T19:14:18.303Z,3.30
2023-02-02T19:16:49.626Z,4.40
2023-02-02T19:19:25.284Z,4.27
2023-02-02T19:21:57.336Z,3.37
2023-02-02T19:24:27.864Z,3.03
2023-02-02T19:26:56.760Z,3.87
2023-02-02T19:29:30.538Z,4.63
2023-02-02T19:32:10.071Z,4.13
2023-02-02T19:34:38.346Z,3.70
2023-02-02T19:37:21.831Z,3.70
2023-02-02T19:39:50.685Z,3.70
2023-02-02T19:42:19.071Z,3.80
2023-02-02T19:44:47.391Z,3.67
2023-02-02T19:47:28.416Z,3.60
2023-02-02T19:49:57.594Z,4.53
2023-02-02T19:52:27.485Z,4.70
2023-02-02T19:54:55.869Z,4.93
2023-02-02T19:57:36.380Z,4.57
2023-02-02T20:00:21.727Z,4.97
2023-02-02T20:02:59.031Z,5.57
2023-02-02T20:05:29.253Z,5.80
2023-02-02T20:08:02.520Z,6.23
2023-02-02T20:10:39.827Z,6.93
2023-02-02T20:13:17.130Z,5.70
2023-02-02T20:15:45.761Z,6.70
2023-02-02T20:18:21.981Z,7.23
2023-02-02T20:20:55.073Z,6.87
2023-02-02T20:23:32.903Z,7.60
2023-02-02T20:26:12.615Z,6.87
2023-02-02T20:28:44.982Z,7.10
2023-02-02T20:31:18.358Z,6.97
2023-02-02T20:33:52.197Z,7.60
2023-02-02T20:36:38.640Z,7.43
2023-02-02T20:39:40.790Z,7.47
2023-02-02T20:42:09.291Z,8.03
2023-02-02T20:44:37.796Z,7.67
2023-02-02T20:47:08.010Z,6.93
2023-02-02T20:49:38.889Z,7.30
2023-02-02T20:52:12.957Z,7.97
2023-02-02T20:54:41.440Z,7.10
2023-02-02T20:57:09.729Z,7.17
2023-02-02T20:59:38.196Z,7.30
2023-02-02T21:02:07.322Z,7.20
2023-02-02T21:04:37.036Z,6.37
2023-02-02T21:07:05.508Z,7.73
2023-02-02T21:09:34.339Z,7.80
2023-02-02T21:12:02.732Z,8.63
2023-02-02T21:14:31.076Z,8.60
2023-02-02T21:17:12.897Z,7.47
2023-02-02T21:19:44.787Z,6.20
2023-02-02T21:22:13.693Z,5.23
2023-02-02T21:24:42.580Z,4.77
2023-02-02T21:27:11.151Z,4.60
2023-02-02T21:29:41.218Z,4.73
2023-02-02T21:32:10.046Z,5.80
2023-02-02T21:34:38.577Z,4.50
2023-02-02T21:37:15.521Z,4.70
2023-02-02T21:39:48.474Z,4.53
2023-02-02T21:42:20.479Z,4.13
2023-02-02T21:44:54.846Z,4.33
2023-02-02T21:47:34.793Z,5.07
2023-02-02T21:50:17.002Z,5.30
2023-02-02T21:52:47.749Z,4.17
2023-02-02T21:55:35.383Z,4.63
2023-02-02T21:58:19.131Z,3.83
2023-02-02T22:00:47.863Z,4.20
2023-02-02T22:03:34.784Z,4.17
2023-02-02T22:06:35.845Z,5.10
2023-02-02T22:09:18.371Z,4.50
2023-02-02T22:11:52.121Z,4.70
2023-02-02T22:14:26.523Z,5.10
2023-02-02T22:16:59.827Z,4.23
2023-02-02T22:19:35.072Z,4.80
2023-02-02T22:22:17.494Z,4.70
2023-02-02T22:24:57.733Z,4.87
2023-02-02T22:27:37.592Z,5.47
2023-02-02T22:30:21.883Z,5.40
2023-02-02T22:32:50.220Z,4.43
2023-02-02T22:35:18.722Z,4.63
2023-02-02T22:37:47.211Z,5.17
2023-02-02T22:40:17.391Z,4.53
2023-02-02T22:42:45.799Z,4.97
2023-02-02T22:45:14.037Z,4.60
2023-02-02T22:47:42.391Z,4.30
2023-02-02T22:50:11.455Z,4.33
2023-02-02T22:52:39.654Z,4.50
2023-02-02T22:55:08.741Z,4.73
2023-02-02T22:57:38.686Z,4.63
2023-02-02T23:00:12.025Z,5.07
2023-02-02T23:02:41.595Z,4.90
2023-02-02T23:05:12.499Z,4.80
2023-02-02T23:07:43.887Z,4.80
2023-02-02T23:10:14.279Z,4.37
2023-02-02T23:12:44.141Z,4.90
2023-02-02T23:15:15.043Z,4.80
2023-02-02T23:17:43.477Z,4.53
2023-02-02T23:20:14.491Z,4.60
2023-02-02T23:22:42.792Z,4.90
2023-02-02T23:25:12.405Z,4.30
2023-02-02T23:27:41.255Z,4.50
2023-02-02T23:30:14.529Z,4.47
2023-02-02T23:32:43.387Z,4.50
2023-02-02T23:35:11.696Z,5.10
2023-02-02T23:37:40.214Z,5.10
2023-02-02T23:40:11.102Z,5.00
2023-02-02T23:42:39.258Z,5.27
2023-02-02T23:45:11.767Z,5.70
2023-02-02T23:47:40.729Z,6.30
2023-02-02T23:50:11.512Z,7.07
2023-02-02T23:52:40.106Z,6.43
2023-02-02T23:55:10.346Z,6.87
2023-02-02T23:57:39.341Z,6.63
